Bisbee, North Dakota
Current Conditions -  °F | °C
As of 12:55 AM on Saturday 25 Oct 2014 (Local Time) from K9D7 Reporting Station
Clear Clear  
Wind Chill: 34°   Ceiling: Unl
Heat Index: 41°   Visibility: 10mi
Dew Point: 32°   Wind: 12mph
Humidity: 70%   Direction: 280°W
Pressure: 29.98"   Gusts: NA
Location:  48.63°N, 99.38°W
Report Text: K9D7 250555Z AUTO 28010KT 10SM CLR 05/00 A2998 RMK AO2
Loading
Personal Weather Stations






























Interactive Weather Map
Tropical Storm Tracking
New forecast layout! Learn more

10-Day Weather Forecast

Advertisements
Track Severe Weather on mobile